createdAt,value
2019-05-25T00:00:09.660Z,70.18
2019-05-25T00:01:09.607Z,71.16
2019-05-25T00:02:09.584Z,70.65
2019-05-25T00:03:09.551Z,68.62
2019-05-25T00:04:09.522Z,66.08
2019-05-25T00:05:09.526Z,65.27
2019-05-25T00:06:09.474Z,62.10
2019-05-25T00:07:09.443Z,62.71
2019-05-25T00:08:09.473Z,62.51
2019-05-25T00:09:09.386Z,60.78
2019-05-25T00:10:10.151Z,61.29
2019-05-25T00:11:09.338Z,60.37
2019-05-25T00:12:09.309Z,59.94
2019-05-25T00:13:09.286Z,59.16
2019-05-25T00:14:09.251Z,59.26
2019-05-25T00:15:09.241Z,59.56
2019-05-25T00:16:09.191Z,59.46
2019-05-25T00:17:09.225Z,59.16
2019-05-25T00:18:09.140Z,59.56
2019-05-25T00:19:09.124Z,59.28
2019-05-25T00:20:09.106Z,59.46
2019-05-25T00:21:09.076Z,59.69
2019-05-25T00:22:09.024Z,59.18
2019-05-25T00:23:08.997Z,59.18
2019-05-25T00:24:12.647Z,59.28
2019-05-25T00:25:08.967Z,59.92
2019-05-25T00:26:08.910Z,59.08
2019-05-25T00:27:08.889Z,59.52
2019-05-25T00:28:08.861Z,59.41
2019-05-25T00:29:08.830Z,59.31
2019-05-25T00:30:08.829Z,59.11
2019-05-25T00:31:08.775Z,59.62
2019-05-25T00:32:08.750Z,59.31
2019-05-25T00:33:08.722Z,59.41
2019-05-25T00:34:08.692Z,59.52
2019-05-25T00:35:08.687Z,59.75
2019-05-25T00:36:08.636Z,59.54
2019-05-25T00:37:08.606Z,59.24
2019-05-25T00:38:08.585Z,59.44
2019-05-25T00:39:08.552Z,59.54
2019-05-25T00:40:08.549Z,59.52
2019-05-25T00:41:08.494Z,59.54
2019-05-25T00:42:08.465Z,59.24
2019-05-25T00:43:08.458Z,59.84
2019-05-25T00:44:08.413Z,59.64
2019-05-25T00:45:08.454Z,59.54
2019-05-25T00:46:08.360Z,59.54
2019-05-25T00:47:08.326Z,59.24
2019-05-25T00:48:08.301Z,59.37
2019-05-25T00:49:08.275Z,59.77
2019-05-25T00:50:08.270Z,59.98
2019-05-25T00:51:08.214Z,60.08
2019-05-25T00:52:08.211Z,60.38
2019-05-25T00:53:08.245Z,60.49
2019-05-25T00:54:08.128Z,60.28
2019-05-25T00:55:08.128Z,60.99
2019-05-25T00:56:08.080Z,60.59
2019-05-25T00:57:08.049Z,60.49
2019-05-25T00:58:08.029Z,60.82
2019-05-25T00:59:07.993Z,61.43
2019-05-25T01:00:07.995Z,61.53
2019-05-25T01:01:07.946Z,61.83
2019-05-25T01:02:07.914Z,62.24
2019-05-25T01:03:07.874Z,62.65
2019-05-25T01:04:07.852Z,62.65
2019-05-25T01:05:07.819Z,62.75
2019-05-25T01:06:07.817Z,62.85
2019-05-25T01:07:07.790Z,63.29
2019-05-25T01:08:07.742Z,63.19
2019-05-25T01:09:07.711Z,63.90
2019-05-25T01:10:07.680Z,64.11
2019-05-25T01:11:07.680Z,63.90
2019-05-25T01:12:08.156Z,63.90
2019-05-25T01:13:07.598Z,63.59
2019-05-25T01:14:07.567Z,64.81
2019-05-25T01:15:07.539Z,64.84
2019-05-25T01:16:07.535Z,64.84
2019-05-25T01:17:07.491Z,65.25
2019-05-25T01:18:07.453Z,65.46
2019-05-25T01:19:07.423Z,66.07
2019-05-25T01:20:07.396Z,65.66
2019-05-25T01:21:07.395Z,66.47
2019-05-25T01:22:08.161Z,67.08
2019-05-25T01:23:07.311Z,67.12
2019-05-25T01:24:07.279Z,67.22
2019-05-25T01:25:07.255Z,67.52
2019-05-25T01:26:07.252Z,68.13
2019-05-25T01:27:07.197Z,68.54
2019-05-25T01:28:07.167Z,68.75
2019-05-25T01:29:07.137Z,68.68
2019-05-25T01:30:07.110Z,69.39
2019-05-25T01:31:07.113Z,69.70
2019-05-25T01:32:07.108Z,70.10
2019-05-25T01:33:07.029Z,70.31
2019-05-25T01:34:07.000Z,70.21
2019-05-25T01:35:06.971Z,70.72
2019-05-25T01:36:06.957Z,70.95
2019-05-25T01:37:06.908Z,70.95
2019-05-25T01:38:06.880Z,71.15
2019-05-25T01:39:06.857Z,71.56
2019-05-25T01:40:06.828Z,71.67
2019-05-25T01:41:06.845Z,71.26
2019-05-25T01:42:07.674Z,72.17
2019-05-25T01:43:06.733Z,72.89
2019-05-25T01:44:06.706Z,72.41
2019-05-25T01:45:07.667Z,72.52
2019-05-25T01:46:06.675Z,72.72
2019-05-25T01:47:06.622Z,72.82
2019-05-25T01:48:06.590Z,72.52
2019-05-25T01:49:06.557Z,73.43
2019-05-25T01:50:06.530Z,73.33
2019-05-25T01:51:06.524Z,73.88
2019-05-25T01:52:06.475Z,73.67
2019-05-25T01:53:06.446Z,73.57
2019-05-25T01:54:06.420Z,74.49
2019-05-25T01:55:06.386Z,73.16
2019-05-25T01:56:06.378Z,74.18
2019-05-25T01:57:06.327Z,74.18
2019-05-25T01:58:06.300Z,74.18
2019-05-25T01:59:06.273Z,74.29
2019-05-25T02:00:06.238Z,74.49
2019-05-25T02:01:06.240Z,74.79
2019-05-25T02:02:06.180Z,75.10
2019-05-25T02:03:06.152Z,75.71
2019-05-25T02:04:06.126Z,75.61
2019-05-25T02:05:06.094Z,75.04
2019-05-25T02:06:06.084Z,75.34
2019-05-25T02:07:06.030Z,76.16
2019-05-25T02:08:06.006Z,76.06
2019-05-25T02:09:05.991Z,76.16
2019-05-25T02:10:05.945Z,76.26
2019-05-25T02:11:05.944Z,76.19
2019-05-25T02:12:05.887Z,76.40
2019-05-25T02:13:05.858Z,76.29
2019-05-25T02:14:05.831Z,76.70
2019-05-25T02:15:05.796Z,76.60
2019-05-25T02:16:05.798Z,77.01
2019-05-25T02:17:05.740Z,77.01
2019-05-25T02:18:05.711Z,76.70
2019-05-25T02:19:05.679Z,76.90
2019-05-25T02:20:05.657Z,77.42
2019-05-25T02:21:05.625Z,77.22
2019-05-25T02:22:05.615Z,77.52
2019-05-25T02:23:05.567Z,77.83
2019-05-25T02:24:05.536Z,77.15
2019-05-25T02:25:16.948Z,77.76
2019-05-25T02:26:05.479Z,77.93
2019-05-25T02:27:05.467Z,77.97
2019-05-25T02:28:05.423Z,77.97
2019-05-25T02:29:05.386Z,77.76
2019-05-25T02:30:05.375Z,77.97
2019-05-25T02:31:05.339Z,78.92
2019-05-25T02:32:05.326Z,78.78
2019-05-25T02:33:05.268Z,79.23
2019-05-25T02:34:05.251Z,79.13
2019-05-25T02:35:05.210Z,78.82
2019-05-25T02:36:05.180Z,79.84
2019-05-25T02:37:05.177Z,79.27
2019-05-25T02:38:05.126Z,80.60
2019-05-25T02:39:05.139Z,81.21
2019-05-25T02:40:05.061Z,81.41
2019-05-25T02:41:05.035Z,81.10
2019-05-25T02:42:05.026Z,81.62
2019-05-25T02:43:04.972Z,81.72
2019-05-25T02:44:04.952Z,81.82
2019-05-25T02:45:04.918Z,82.03
2019-05-25T02:46:04.888Z,82.84
2019-05-25T02:47:04.881Z,82.84
2019-05-25T02:48:04.877Z,82.75
2019-05-25T02:49:05.677Z,82.75
2019-05-25T02:50:04.771Z,82.64
2019-05-25T02:51:04.737Z,83.50
2019-05-25T02:52:04.728Z,84.22
2019-05-25T02:53:04.678Z,84.63
2019-05-25T02:54:04.657Z,84.07
2019-05-25T02:55:04.622Z,84.31
2019-05-25T02:56:04.599Z,84.52
2019-05-25T02:57:04.581Z,84.83
2019-05-25T02:58:04.536Z,84.69
2019-05-25T02:59:05.100Z,84.93
2019-05-25T03:00:04.472Z,84.72
2019-05-25T03:01:04.440Z,84.83
2019-05-25T03:02:04.434Z,85.14
2019-05-25T03:03:04.384Z,85.44
2019-05-25T03:04:04.348Z,86.16
2019-05-25T03:05:04.340Z,85.58
2019-05-25T03:06:04.346Z,85.85
2019-05-25T03:07:04.288Z,86.36
2019-05-25T03:08:04.238Z,86.20
2019-05-25T03:09:04.212Z,86.61
2019-05-25T03:10:04.174Z,86.10
2019-05-25T03:11:04.145Z,86.40
2019-05-25T03:12:04.141Z,86.30
2019-05-25T03:13:04.146Z,87.02
2019-05-25T03:14:04.058Z,86.91
2019-05-25T03:15:04.172Z,87.63
2019-05-25T03:16:03.996Z,87.57
2019-05-25T03:17:03.997Z,87.53
2019-05-25T03:18:03.932Z,87.57
2019-05-25T03:19:03.904Z,87.53
2019-05-25T03:20:03.882Z,87.53
2019-05-25T03:21:03.845Z,87.53
2019-05-25T03:22:03.842Z,87.22
2019-05-25T03:23:03.783Z,87.22
2019-05-25T03:24:03.761Z,87.94
2019-05-25T03:25:03.721Z,87.63
2019-05-25T03:26:03.693Z,87.43
2019-05-25T03:27:03.687Z,87.63
2019-05-25T03:28:03.637Z,87.94
2019-05-25T03:29:03.603Z,87.43
2019-05-25T03:30:03.579Z,88.04
2019-05-25T03:31:03.548Z,87.63
2019-05-25T03:32:03.543Z,87.94
2019-05-25T03:33:03.497Z,87.22
2019-05-25T03:34:03.459Z,87.53
2019-05-25T03:35:03.433Z,87.59
2019-05-25T03:36:03.400Z,87.08
2019-05-25T03:37:03.397Z,87.18
2019-05-25T03:38:03.383Z,86.98
2019-05-25T03:39:03.304Z,86.81
2019-05-25T03:40:03.276Z,86.77
2019-05-25T03:41:03.241Z,86.98
2019-05-25T03:42:03.217Z,86.16
2019-05-25T03:43:03.206Z,87.04
2019-05-25T03:44:03.155Z,86.22
2019-05-25T03:45:03.132Z,86.32
2019-05-25T03:46:03.100Z,86.12
2019-05-25T03:47:03.070Z,85.91
2019-05-25T03:48:03.099Z,85.40
2019-05-25T03:49:03.019Z,85.61
2019-05-25T03:50:02.977Z,85.20
2019-05-25T03:51:02.945Z,84.44
2019-05-25T03:52:02.916Z,84.44
2019-05-25T03:53:02.923Z,84.61
2019-05-25T03:54:02.861Z,84.65
2019-05-25T03:55:02.830Z,84.09
2019-05-25T03:56:05.842Z,83.38
2019-05-25T03:57:02.771Z,83.07
2019-05-25T03:58:02.763Z,83.28
2019-05-25T03:59:02.708Z,83.07
2019-05-25T04:00:02.679Z,83.04
2019-05-25T04:01:02.651Z,82.67
2019-05-25T04:02:02.616Z,82.73
2019-05-25T04:03:03.188Z,82.42
2019-05-25T04:04:02.559Z,82.01
2019-05-25T04:05:02.550Z,81.77
2019-05-25T04:06:02.498Z,81.05
2019-05-25T04:07:03.193Z,80.96
2019-05-25T04:08:02.460Z,80.14
2019-05-25T04:09:02.411Z,79.90
2019-05-25T04:10:02.421Z,79.69
2019-05-25T04:11:02.353Z,78.91
2019-05-25T04:12:02.327Z,78.16
2019-05-25T04:13:02.319Z,77.24
2019-05-25T04:14:02.269Z,76.69
2019-05-25T04:15:02.237Z,76.79
2019-05-25T04:16:02.206Z,75.78
2019-05-25T04:17:02.178Z,76.22
2019-05-25T04:18:02.183Z,76.83
2019-05-25T04:19:02.122Z,77.64
2019-05-25T04:20:02.095Z,77.75
2019-05-25T04:21:02.064Z,78.09
2019-05-25T04:22:02.035Z,76.97
2019-05-25T04:23:02.038Z,78.13
2019-05-25T04:24:02.024Z,78.23
2019-05-25T04:25:01.958Z,78.64
2019-05-25T04:26:01.939Z,78.98
2019-05-25T04:27:01.892Z,78.43
2019-05-25T04:28:01.890Z,78.84
2019-05-25T04:29:01.843Z,78.88
2019-05-25T04:30:01.805Z,78.43
2019-05-25T04:31:01.773Z,78.88
2019-05-25T04:32:01.744Z,79.18
2019-05-25T04:33:01.744Z,78.98
2019-05-25T04:34:01.698Z,79.04
2019-05-25T04:35:01.663Z,78.74
2019-05-25T04:36:02.196Z,78.74
2019-05-25T04:37:01.603Z,78.43
2019-05-25T04:38:01.602Z,78.94
2019-05-25T04:39:01.543Z,78.74
2019-05-25T04:40:01.545Z,78.53
2019-05-25T04:41:01.491Z,78.53
2019-05-25T04:42:01.462Z,78.33
2019-05-25T04:43:01.544Z,78.23
2019-05-25T04:44:01.403Z,78.57
2019-05-25T04:45:01.387Z,78.84
2019-05-25T04:46:01.373Z,78.67
2019-05-25T04:47:01.320Z,78.57
2019-05-25T04:48:01.381Z,78.74
2019-05-25T04:49:01.253Z,78.67
2019-05-25T04:50:01.237Z,78.88
2019-05-25T04:51:01.230Z,79.08
2019-05-25T04:52:01.172Z,78.77
2019-05-25T04:53:01.140Z,79.08
2019-05-25T04:54:01.145Z,78.88
2019-05-25T04:55:01.093Z,78.74
2019-05-25T04:56:01.058Z,78.53
2019-05-25T04:57:01.032Z,78.67
2019-05-25T04:58:00.999Z,78.43
2019-05-25T04:59:01.232Z,78.64
2019-05-25T05:00:00.938Z,78.64
2019-05-25T05:01:00.916Z,78.88
2019-05-25T05:02:00.882Z,78.74
2019-05-25T05:03:00.851Z,79.04
2019-05-25T05:04:00.848Z,78.74
2019-05-25T05:05:00.854Z,78.33
2019-05-25T05:06:00.779Z,77.82
2019-05-25T05:07:00.737Z,78.43
2019-05-25T05:08:00.709Z,77.72
2019-05-25T05:09:00.716Z,78.02
2019-05-25T05:10:02.953Z,77.62
2019-05-25T05:11:00.625Z,77.58
2019-05-25T05:12:00.596Z,77.58
2019-05-25T05:13:00.568Z,77.17
2019-05-25T05:14:00.561Z,77.07
2019-05-25T05:15:00.511Z,77.03
2019-05-25T05:16:00.500Z,76.53
2019-05-25T05:17:00.446Z,76.73
2019-05-25T05:18:00.419Z,76.18
2019-05-25T05:19:00.408Z,75.88
2019-05-25T05:20:00.358Z,75.78
2019-05-25T05:21:00.330Z,75.64
2019-05-25T05:22:00.305Z,74.69
2019-05-25T05:23:01.137Z,73.26
2019-05-25T05:24:00.271Z,71.50
2019-05-25T05:25:07.708Z,70.31
2019-05-25T05:26:00.242Z,71.43
2019-05-25T05:27:00.424Z,72.08
2019-05-25T05:28:00.173Z,72.48
2019-05-25T05:29:00.167Z,72.92
2019-05-25T05:30:00.129Z,73.87
2019-05-25T05:31:00.091Z,74.41
2019-05-25T05:32:00.035Z,74.86
2019-05-25T05:33:00.005Z,75.57
2019-05-25T05:34:00.291Z,75.78
2019-05-25T05:35:01.665Z,75.88
2019-05-25T05:36:00.703Z,75.84
2019-05-25T05:36:59.929Z,75.64
2019-05-25T05:38:00.750Z,74.72
2019-05-25T05:38:59.884Z,74.32
2019-05-25T05:39:59.811Z,74.72
2019-05-25T05:41:00.745Z,75.74
2019-05-25T05:42:00.245Z,74.72
2019-05-25T05:42:59.774Z,75.47
2019-05-25T05:44:03.167Z,74.76
2019-05-25T05:44:59.700Z,75.54
2019-05-25T05:46:00.167Z,74.62
2019-05-25T05:46:59.670Z,73.97
2019-05-25T05:47:59.559Z,73.36
2019-05-25T05:48:59.550Z,71.91
2019-05-25T05:49:59.514Z,71.06
2019-05-25T05:50:59.468Z,71.16
2019-05-25T05:51:59.461Z,70.62
2019-05-25T05:52:59.515Z,70.11
2019-05-25T05:53:59.405Z,70.21
2019-05-25T05:54:59.353Z,70.55
2019-05-25T05:55:59.324Z,70.75
2019-05-25T05:57:11.646Z,70.55
2019-05-25T05:57:59.271Z,70.52
2019-05-25T05:58:59.266Z,70.31
2019-05-25T05:59:59.212Z,70.62
2019-05-25T06:00:59.237Z,70.21
2019-05-25T06:01:59.165Z,69.98
2019-05-25T06:03:01.753Z,69.67
2019-05-25T06:03:59.135Z,69.47
2019-05-25T06:04:59.077Z,69.54
2019-05-25T06:05:59.049Z,68.70
2019-05-25T06:06:59.017Z,68.35
2019-05-25T06:07:58.997Z,68.05
2019-05-25T06:08:58.963Z,67.92
2019-05-25T06:09:58.962Z,67.41
2019-05-25T06:10:58.908Z,67.21
2019-05-25T06:11:58.883Z,66.91
2019-05-25T06:13:01.758Z,67.72
2019-05-25T06:13:58.837Z,67.21
2019-05-25T06:14:58.828Z,66.27
2019-05-25T06:15:58.787Z,65.28
2019-05-25T06:16:58.758Z,65.99
2019-05-25T06:17:58.725Z,66.67
2019-05-25T06:18:58.694Z,65.66
2019-05-25T06:19:58.797Z,65.99
2019-05-25T06:20:58.642Z,66.27
2019-05-25T06:21:58.627Z,65.39
2019-05-25T06:22:58.656Z,65.96
2019-05-25T06:23:58.567Z,66.09
2019-05-25T06:24:58.562Z,66.40
2019-05-25T06:25:58.514Z,66.70
2019-05-25T06:26:58.494Z,67.31
2019-05-25T06:27:58.473Z,66.53
2019-05-25T06:28:58.446Z,66.46
2019-05-25T06:29:58.449Z,66.40
2019-05-25T06:30:58.393Z,66.16
2019-05-25T06:31:58.374Z,65.53
2019-05-25T06:32:58.359Z,64.41
2019-05-25T06:33:58.310Z,64.64
2019-05-25T06:34:58.319Z,65.63
2019-05-25T06:35:58.264Z,65.32
2019-05-25T06:36:58.232Z,65.36
2019-05-25T06:37:58.207Z,65.66
2019-05-25T06:38:58.178Z,65.73
2019-05-25T06:39:58.200Z,65.15
2019-05-25T06:40:58.144Z,65.36
2019-05-25T06:41:58.109Z,65.66
2019-05-25T06:42:58.085Z,65.05
2019-05-25T06:43:58.051Z,64.44
2019-05-25T06:44:58.049Z,65.25
2019-05-25T06:45:58.009Z,65.05
2019-05-25T06:46:57.980Z,65.45
2019-05-25T06:47:57.960Z,64.72
2019-05-25T06:48:57.934Z,63.27
2019-05-25T06:49:57.925Z,64.34
2019-05-25T06:50:57.880Z,64.95
2019-05-25T06:51:57.856Z,65.66
2019-05-25T06:52:58.220Z,65.76
2019-05-25T06:53:57.805Z,65.05
2019-05-25T06:54:57.847Z,65.15
2019-05-25T06:55:57.751Z,65.05
2019-05-25T06:56:57.723Z,65.63
2019-05-25T06:57:57.699Z,65.12
2019-05-25T06:58:57.674Z,64.99
2019-05-25T06:59:57.677Z,64.55
2019-05-25T07:00:57.618Z,63.17
2019-05-25T07:01:57.593Z,63.54
2019-05-25T07:02:57.566Z,63.54
2019-05-25T07:03:57.546Z,63.10
2019-05-25T07:04:57.556Z,62.50
2019-05-25T07:05:57.503Z,62.53
2019-05-25T07:06:57.484Z,62.33
2019-05-25T07:07:57.466Z,63.37
2019-05-25T07:08:57.423Z,61.65
2019-05-25T07:09:57.427Z,63.50
2019-05-25T07:10:57.373Z,63.50
2019-05-25T07:11:57.347Z,64.31
2019-05-25T07:12:57.324Z,64.54
2019-05-25T07:13:57.302Z,64.75
2019-05-25T07:14:57.300Z,64.72
2019-05-25T07:15:57.251Z,65.32
2019-05-25T07:16:57.220Z,64.99
2019-05-25T07:17:57.192Z,63.20
2019-05-25T07:18:57.168Z,64.51
2019-05-25T07:19:57.146Z,65.02
2019-05-25T07:20:57.140Z,65.15
2019-05-25T07:21:57.105Z,65.36
2019-05-25T07:23:00.189Z,65.63
2019-05-25T07:23:57.051Z,64.92
2019-05-25T07:24:57.019Z,65.12
2019-05-25T07:25:57.017Z,64.89
2019-05-25T07:26:56.970Z,64.58
2019-05-25T07:28:00.031Z,64.69
2019-05-25T07:28:56.917Z,63.70
2019-05-25T07:29:56.897Z,64.61
2019-05-25T07:30:56.896Z,65.32
2019-05-25T07:31:56.844Z,65.02
2019-05-25T07:32:56.868Z,64.89
2019-05-25T07:33:56.796Z,64.38
2019-05-25T07:34:56.782Z,63.44
2019-05-25T07:35:56.764Z,64.02
2019-05-25T07:36:56.716Z,63.21
2019-05-25T07:37:56.698Z,61.87
2019-05-25T07:38:56.677Z,61.87
2019-05-25T07:39:56.640Z,62.14
2019-05-25T07:40:56.647Z,61.07
2019-05-25T07:41:56.595Z,60.57
2019-05-25T07:42:56.572Z,60.39
2019-05-25T07:43:56.542Z,60.80
2019-05-25T07:44:56.521Z,60.82
2019-05-25T07:45:56.520Z,61.43
2019-05-25T07:46:56.475Z,61.63
2019-05-25T07:47:56.454Z,61.25
2019-05-25T07:48:56.429Z,62.57
2019-05-25T07:49:56.411Z,62.47
2019-05-25T07:50:56.397Z,62.67
2019-05-25T07:51:56.352Z,62.67
2019-05-25T07:52:56.330Z,62.47
2019-05-25T07:53:56.300Z,61.73
2019-05-25T07:54:56.283Z,60.60
2019-05-25T07:55:56.278Z,60.39
2019-05-25T07:56:56.237Z,61.13
2019-05-25T07:57:56.207Z,60.66
2019-05-25T07:58:56.184Z,59.48
2019-05-25T07:59:56.167Z,59.89
2019-05-25T08:00:56.160Z,59.08
2019-05-25T08:01:56.112Z,59.78
2019-05-25T08:02:56.088Z,59.48
2019-05-25T08:03:56.065Z,59.51
2019-05-25T08:04:56.044Z,59.81
2019-05-25T08:05:56.042Z,59.69
2019-05-25T08:06:56.010Z,60.09
2019-05-25T08:07:55.972Z,60.09
2019-05-25T08:08:55.945Z,59.08
2019-05-25T08:09:56.029Z,60.22
2019-05-25T08:10:55.926Z,60.14
2019-05-25T08:11:55.877Z,60.65
2019-05-25T08:12:55.853Z,60.45
2019-05-25T08:13:55.831Z,60.96
2019-05-25T08:14:55.802Z,60.75
2019-05-25T08:15:55.801Z,61.69
2019-05-25T08:16:55.757Z,62.43
2019-05-25T08:17:55.738Z,62.53
2019-05-25T08:18:55.712Z,63.44
2019-05-25T08:19:55.798Z,62.40
2019-05-25T08:20:55.680Z,62.63
2019-05-25T08:21:55.633Z,62.60
2019-05-25T08:22:55.612Z,62.40
2019-05-25T08:23:55.585Z,62.70
2019-05-25T08:24:55.565Z,62.67
2019-05-25T08:25:55.560Z,61.63
2019-05-25T08:26:55.521Z,60.55
2019-05-25T08:27:55.496Z,61.05
2019-05-25T08:28:55.468Z,61.05
2019-05-25T08:29:56.245Z,61.96
2019-05-25T08:30:55.454Z,62.10
2019-05-25T08:31:55.395Z,62.81
2019-05-25T08:32:55.377Z,62.27
2019-05-25T08:33:55.342Z,62.50
2019-05-25T08:34:55.324Z,63.61
2019-05-25T08:35:55.291Z,62.73
2019-05-25T08:36:55.307Z,62.84
2019-05-25T08:37:55.248Z,63.37
2019-05-25T08:38:55.220Z,63.67
2019-05-25T08:39:55.319Z,63.60
2019-05-25T08:40:55.177Z,64.11
2019-05-25T08:41:55.171Z,63.47
2019-05-25T08:42:55.123Z,63.57
2019-05-25T08:43:55.096Z,63.10
2019-05-25T08:44:55.715Z,62.81
2019-05-25T08:45:55.060Z,62.47
2019-05-25T08:46:55.600Z,60.32
2019-05-25T08:47:57.222Z,60.49
2019-05-25T08:48:54.971Z,60.72
2019-05-25T08:49:54.969Z,60.55
2019-05-25T08:50:54.923Z,61.29
2019-05-25T08:51:55.153Z,61.99
2019-05-25T08:52:54.871Z,62.33
2019-05-25T08:53:54.848Z,63.44
2019-05-25T08:54:56.681Z,62.15
2019-05-25T08:55:54.807Z,63.81
2019-05-25T08:56:54.824Z,63.30
2019-05-25T08:57:54.773Z,63.50
2019-05-25T08:58:55.556Z,63.60
2019-05-25T08:59:54.706Z,63.70
2019-05-25T09:00:54.680Z,63.27
2019-05-25T09:01:54.678Z,63.54
2019-05-25T09:02:54.631Z,63.13
2019-05-25T09:03:54.599Z,61.90
2019-05-25T09:04:54.573Z,62.19
2019-05-25T09:05:54.552Z,61.90
2019-05-25T09:06:54.553Z,61.90
2019-05-25T09:07:54.497Z,61.99
2019-05-25T09:08:54.474Z,61.90
2019-05-25T09:09:54.468Z,62.30
2019-05-25T09:10:54.427Z,62.70
2019-05-25T09:11:54.427Z,62.53
2019-05-25T09:12:54.378Z,62.84
2019-05-25T09:13:54.354Z,62.53
2019-05-25T09:14:54.327Z,62.50
2019-05-25T09:15:54.306Z,62.33
2019-05-25T09:16:54.302Z,61.49
2019-05-25T09:17:54.602Z,61.25
2019-05-25T09:18:54.233Z,60.45
2019-05-25T09:19:54.203Z,60.35
2019-05-25T09:20:54.207Z,60.14
2019-05-25T09:22:02.687Z,59.71
2019-05-25T09:22:54.144Z,60.25
2019-05-25T09:23:54.109Z,60.45
2019-05-25T09:24:54.082Z,60.48
2019-05-25T09:25:54.056Z,60.48
2019-05-25T09:26:54.061Z,61.08
2019-05-25T09:27:54.004Z,60.96
2019-05-25T09:29:03.891Z,60.75
2019-05-25T09:29:53.956Z,60.35
2019-05-25T09:30:53.957Z,61.16
2019-05-25T09:31:53.925Z,60.82
2019-05-25T09:32:53.883Z,60.72
2019-05-25T09:33:53.873Z,60.69
2019-05-25T09:34:53.854Z,59.56
2019-05-25T09:35:53.813Z,60.09
2019-05-25T09:36:53.819Z,59.76
2019-05-25T09:37:53.770Z,59.15
2019-05-25T09:38:53.741Z,59.08
2019-05-25T09:39:53.712Z,59.28
2019-05-25T09:40:53.687Z,57.94
2019-05-25T09:41:53.689Z,58.45
2019-05-25T09:42:53.673Z,57.41
2019-05-25T09:43:53.624Z,57.91
2019-05-25T09:44:53.602Z,57.38
2019-05-25T09:45:53.574Z,56.55
2019-05-25T09:46:53.567Z,56.62
2019-05-25T09:47:53.523Z,55.39
2019-05-25T09:48:53.498Z,54.05
2019-05-25T09:49:53.497Z,53.55
2019-05-25T09:50:53.476Z,53.63
2019-05-25T09:51:53.736Z,53.70
2019-05-25T09:52:53.418Z,53.67
2019-05-25T09:53:53.383Z,52.97
2019-05-25T09:54:55.672Z,53.60
2019-05-25T09:55:53.333Z,53.12
2019-05-25T09:56:53.314Z,53.65
2019-05-25T09:57:53.325Z,53.72
2019-05-25T09:58:53.282Z,53.50
2019-05-25T09:59:53.267Z,52.77
2019-05-25T10:00:53.232Z,52.14
2019-05-25T10:01:53.211Z,52.55
2019-05-25T10:02:53.212Z,53.05
2019-05-25T10:03:56.909Z,51.64
2019-05-25T10:04:53.140Z,51.84
2019-05-25T10:05:53.116Z,51.64
2019-05-25T10:06:53.094Z,52.74
2019-05-25T10:07:53.101Z,52.97
2019-05-25T10:08:53.055Z,53.60
2019-05-25T10:09:53.027Z,53.83
2019-05-25T10:10:53.029Z,54.05
2019-05-25T10:11:52.987Z,53.45
2019-05-25T10:12:52.988Z,54.35
2019-05-25T10:13:52.946Z,54.35
2019-05-25T10:14:52.924Z,53.95
2019-05-25T10:15:52.901Z,53.72
2019-05-25T10:16:52.888Z,53.80
2019-05-25T10:17:53.370Z,54.10
2019-05-25T10:18:52.854Z,52.67
2019-05-25T10:19:52.817Z,52.67
2019-05-25T10:20:52.797Z,52.57
2019-05-25T10:21:52.774Z,52.92
2019-05-25T10:22:52.780Z,53.63
2019-05-25T10:23:52.725Z,54.13
2019-05-25T10:24:52.716Z,53.22
2019-05-25T10:25:52.689Z,53.65
2019-05-25T10:26:52.665Z,53.67
2019-05-25T10:27:52.670Z,54.35
2019-05-25T10:28:52.618Z,54.48
2019-05-25T10:29:52.598Z,55.01
2019-05-25T10:30:52.575Z,54.83
2019-05-25T10:31:52.554Z,55.34
2019-05-25T10:32:52.570Z,55.97
2019-05-25T10:33:52.508Z,55.87
2019-05-25T10:34:52.488Z,55.87
2019-05-25T10:35:52.474Z,56.15
2019-05-25T10:36:52.458Z,55.84
2019-05-25T10:37:52.456Z,55.91
2019-05-25T10:38:52.402Z,55.59
2019-05-25T10:39:52.378Z,54.18
2019-05-25T10:40:52.359Z,54.79
2019-05-25T10:41:52.330Z,54.28
2019-05-25T10:42:52.338Z,54.30
2019-05-25T10:43:52.292Z,55.41
2019-05-25T10:44:52.269Z,55.51
2019-05-25T10:45:52.245Z,55.11
2019-05-25T10:46:52.241Z,55.11
2019-05-25T10:47:52.216Z,55.08
2019-05-25T10:48:52.170Z,54.46
2019-05-25T10:49:52.154Z,54.15
2019-05-25T10:50:52.155Z,54.88
2019-05-25T10:51:52.109Z,54.18
2019-05-25T10:52:52.104Z,54.08
2019-05-25T10:53:52.063Z,54.75
2019-05-25T10:54:52.038Z,53.72
2019-05-25T10:55:52.015Z,53.85
2019-05-25T10:56:52.146Z,53.45
2019-05-25T10:57:52.001Z,53.42
2019-05-25T10:58:51.954Z,53.67
2019-05-25T10:59:53.466Z,53.60
2019-05-25T11:00:51.904Z,55.51
2019-05-25T11:01:51.882Z,55.74
2019-05-25T11:02:51.885Z,55.57
2019-05-25T11:03:51.836Z,55.34
2019-05-25T11:04:51.819Z,55.74
2019-05-25T11:05:51.790Z,55.24
2019-05-25T11:06:51.789Z,55.64
2019-05-25T11:07:51.750Z,55.84
2019-05-25T11:08:51.756Z,56.24
2019-05-25T11:09:51.707Z,56.24
2019-05-25T11:10:51.684Z,56.88
2019-05-25T11:11:51.655Z,57.18
2019-05-25T11:12:51.646Z,57.25
2019-05-25T11:13:51.635Z,56.88
2019-05-25T11:14:51.593Z,57.89
2019-05-25T11:15:51.571Z,56.77
2019-05-25T11:16:51.715Z,56.95
2019-05-25T11:17:51.536Z,56.04
2019-05-25T11:18:51.525Z,55.94
2019-05-25T11:19:51.473Z,55.51
2019-05-25T11:20:51.451Z,54.28
2019-05-25T11:21:51.427Z,53.75
2019-05-25T11:22:51.407Z,53.72
2019-05-25T11:23:51.401Z,52.89
2019-05-25T11:24:51.361Z,52.97
2019-05-25T11:25:51.333Z,51.84
2019-05-25T11:26:51.312Z,52.04
2019-05-25T11:27:51.293Z,51.74
2019-05-25T11:28:51.291Z,51.44
2019-05-25T11:29:51.248Z,51.44
2019-05-25T11:30:51.227Z,50.33
2019-05-25T11:31:57.607Z,50.43
2019-05-25T11:32:51.179Z,51.11
2019-05-25T11:33:51.182Z,50.68
2019-05-25T11:34:51.141Z,51.19
2019-05-25T11:35:51.118Z,50.29
2019-05-25T11:36:51.091Z,49.88
2019-05-25T11:37:51.075Z,51.09
2019-05-25T11:38:51.072Z,50.68
2019-05-25T11:39:51.035Z,50.18
2019-05-25T11:40:51.007Z,50.16
2019-05-25T11:41:50.984Z,49.13
2019-05-25T11:42:50.980Z,50.06
2019-05-25T11:43:50.978Z,49.66
2019-05-25T11:44:50.930Z,50.34
2019-05-25T11:45:50.911Z,49.76
2019-05-25T11:46:51.763Z,48.75
2019-05-25T11:47:50.860Z,48.86
2019-05-25T11:48:50.916Z,50.18
2019-05-25T11:49:50.822Z,49.91
2019-05-25T11:50:50.802Z,49.40
2019-05-25T11:51:50.809Z,50.01
2019-05-25T11:52:50.790Z,49.93
2019-05-25T11:53:50.758Z,49.93
2019-05-25T11:54:50.718Z,50.23
2019-05-25T11:55:50.696Z,50.51
2019-05-25T11:56:50.672Z,48.50
2019-05-25T11:57:50.680Z,49.30
2019-05-25T11:58:50.654Z,48.80
2019-05-25T11:59:50.620Z,48.80
2019-05-25T12:00:51.756Z,49.60
2019-05-25T12:01:50.571Z,49.63
2019-05-25T12:02:50.555Z,50.13
2019-05-25T12:03:50.559Z,49.53
2019-05-25T12:04:50.514Z,50.31
2019-05-25T12:05:50.495Z,49.83
2019-05-25T12:06:50.464Z,50.43
2019-05-25T12:07:50.443Z,50.05
2019-05-25T12:08:50.493Z,50.89
2019-05-25T12:09:50.426Z,51.16
2019-05-25T12:10:59.363Z,50.86
2019-05-25T12:11:50.370Z,50.86
2019-05-25T12:12:50.341Z,51.39
2019-05-25T12:13:50.353Z,51.26
2019-05-25T12:14:50.294Z,50.89
2019-05-25T12:15:50.286Z,50.89
2019-05-25T12:16:50.268Z,51.91
2019-05-25T12:17:50.235Z,52.14
2019-05-25T12:18:50.241Z,51.79
2019-05-25T12:19:50.188Z,51.99
2019-05-25T12:20:50.173Z,51.68
2019-05-25T12:21:50.146Z,50.96
2019-05-25T12:22:50.319Z,50.84
2019-05-25T12:23:50.114Z,51.44
2019-05-25T12:24:50.657Z,50.33
2019-05-25T12:25:50.063Z,50.03
2019-05-25T12:26:50.048Z,49.93
2019-05-25T12:27:50.029Z,50.21
2019-05-25T12:28:50.890Z,51.44
2019-05-25T12:29:49.997Z,50.53
2019-05-25T12:30:49.985Z,51.64
2019-05-25T12:31:49.929Z,51.04
2019-05-25T12:32:49.915Z,50.84
2019-05-25T12:33:49.897Z,50.81
2019-05-25T12:34:49.907Z,51.21
2019-05-25T12:35:49.868Z,50.53
2019-05-25T12:36:49.822Z,50.63
2019-05-25T12:37:49.802Z,50.93
2019-05-25T12:38:49.790Z,51.24
2019-05-25T12:39:49.788Z,50.61
2019-05-25T12:40:53.692Z,51.24
2019-05-25T12:41:49.715Z,51.74
2019-05-25T12:42:49.757Z,50.76
2019-05-25T12:43:49.806Z,51.16
2019-05-25T12:44:49.779Z,51.26
2019-05-25T12:45:49.636Z,50.84
2019-05-25T12:46:49.611Z,50.51
2019-05-25T12:47:50.823Z,49.91
2019-05-25T12:48:52.317Z,50.03
2019-05-25T12:49:51.407Z,50.13
2019-05-25T12:50:49.525Z,50.35
2019-05-25T12:51:49.616Z,50.66